CAL067 RCTP-LKPR
Flight info
| Callsign | CAL067 |
|---|---|
| Flight time | N/A |
| Altitude | 34000 |
| Route | CHALI1A CHALI T3 MKG A1 KADLO T1 KAPLI DCT ALLEY V10 SIKOU/K0935S1040 R339 WUY R474 TEBAK/K0935F340 R474 NOB W21 BQ B214 LADON/N0505F340 B214 AKSAG/N0499F360 B465 CEA R460 LKN M890 CHG/N0500F380 M890 SULOM A466 DI N644 LEMOD A909 BIBIM/N0493F400 A909 RODAR N644 ADEKI DCT BADIR DCT LAGAS DCT FOQUS DCT SARPI UM10 GOKPA UL746 ODERO L746 LUGEB DCT BUDOP DCT PATAK DCT LALES DCT BNO DCT TUMKA DCT VLM |
| Aircraft | A359/H-SDE2E3GHIJ3J4J5LM1ORWXY/LB1D1 |
Departure
| Time | 2026-04-30 13:55 |
|---|---|
| Airport | Taiwan Taoyuan International Airport (RCTP) |
Arrival
| Time | N/A |
|---|---|
| Airport | Václav Havel Airport Prague (LKPR) |
| Time | Latitude | Longitude | Altitude | Speed | Heading |
|---|---|---|---|---|---|
| 2026-04-30 13:54 | 25.27264 | 121.10630 | 8473 ft | 262 kts | 244° |
| 2026-04-30 13:55 | 25.26264 | 121.09022 | 8907 ft | 266 kts | 232° |
| 2026-04-30 13:55 | 25.25039 | 121.07481 | 9365 ft | 268 kts | 230° |
| 2026-04-30 13:55 | 25.23793 | 121.05945 | 9864 ft | 269 kts | 231° |
| 2026-04-30 13:55 | 25.22546 | 121.04394 | 10270 ft | 272 kts | 231° |
| 2026-04-30 13:56 | 25.21267 | 121.02788 | 10468 ft | 283 kts | 231° |
| 2026-04-30 13:56 | 25.19887 | 121.01181 | 10653 ft | 294 kts | 227° |
| 2026-04-30 13:56 | 25.18398 | 120.99570 | 10845 ft | 305 kts | 227° |
| 2026-04-30 13:56 | 25.16846 | 120.97912 | 11036 ft | 315 kts | 227° |
| 2026-04-30 13:57 | 25.15250 | 120.96208 | 11231 ft | 325 kts | 227° |
| 2026-04-30 13:57 | 25.13622 | 120.94467 | 11387 ft | 335 kts | 226° |
| 2026-04-30 13:57 | 25.11780 | 120.92488 | 11562 ft | 345 kts | 227° |
| 2026-04-30 13:57 | 25.09906 | 120.90467 | 11780 ft | 355 kts | 227° |
| 2026-04-30 13:58 | 25.08114 | 120.88536 | 11946 ft | 359 kts | 226° |
| 2026-04-30 13:58 | 25.04525 | 120.84670 | 12104 ft | 368 kts | 227° |
| 2026-04-30 13:58 | 25.02673 | 120.82675 | 12311 ft | 374 kts | 227° |
| 2026-04-30 13:59 | 25.00479 | 120.80315 | 12702 ft | 377 kts | 227° |
| 2026-04-30 13:59 | 24.92868 | 120.72132 | 13891 ft | 387 kts | 227° |
| 2026-04-30 13:59 | 24.85176 | 120.63877 | 15002 ft | 394 kts | 227° |
| 2026-04-30 13:59 | 24.77249 | 120.55386 | 16124 ft | 400 kts | 227° |
| 2026-04-30 14:00 | 24.68688 | 120.47395 | 17206 ft | 411 kts | 218° |
| 2026-04-30 14:00 | 24.49434 | 120.33002 | 19045 ft | 425 kts | 218° |
| 2026-04-30 14:00 | 24.39701 | 120.25543 | 19902 ft | 429 kts | 219° |
| 2026-04-30 14:01 | 24.29910 | 120.17916 | 20722 ft | 434 kts | 219° |
| 2026-04-30 14:01 | 24.19901 | 120.10157 | 21474 ft | 441 kts | 218° |
| 2026-04-30 14:01 | 24.09838 | 120.02379 | 22381 ft | 443 kts | 219° |
| 2026-04-30 14:01 | 23.99782 | 119.94614 | 22966 ft | 452 kts | 218° |
| 2026-04-30 14:02 | 23.89464 | 119.86679 | 23738 ft | 455 kts | 218° |
| 2026-04-30 14:02 | 23.79037 | 119.78664 | 24281 ft | 460 kts | 218° |
| 2026-04-30 14:02 | 23.68497 | 119.70584 | 24845 ft | 465 kts | 218° |
| 2026-04-30 14:02 | 23.58569 | 119.61669 | 25466 ft | 462 kts | 234° |
| 2026-04-30 14:03 | 23.51480 | 119.49950 | 26037 ft | 464 kts | 240° |
| 2026-04-30 14:03 | 23.44638 | 119.38020 | 26698 ft | 467 kts | 239° |
| 2026-04-30 14:03 | 23.37645 | 119.26001 | 27340 ft | 470 kts | 239° |
| 2026-04-30 14:03 | 23.30585 | 119.13901 | 27885 ft | 475 kts | 239° |
| 2026-04-30 14:04 | 23.23478 | 119.01746 | 28476 ft | 477 kts | 239° |
| 2026-04-30 14:04 | 23.16320 | 118.89533 | 28939 ft | 481 kts | 239° |
| 2026-04-30 14:04 | 23.09178 | 118.77379 | 29761 ft | 475 kts | 239° |
| 2026-04-30 14:04 | 23.02190 | 118.65513 | 30547 ft | 471 kts | 239° |
| 2026-04-30 14:05 | 22.94295 | 118.54115 | 31053 ft | 477 kts | 224° |
| 2026-04-30 14:05 | 22.86656 | 118.48819 | 31431 ft | 483 kts | 213° |
| 2026-04-30 14:05 | 22.71079 | 118.39753 | 32292 ft | 479 kts | 213° |
| 2026-04-30 14:05 | 22.63305 | 118.35185 | 32571 ft | 481 kts | 212° |
| 2026-04-30 14:06 | 22.51546 | 118.28281 | 33144 ft | 480 kts | 212° |
| 2026-04-30 14:06 | 22.28113 | 118.14549 | 34057 ft | 480 kts | 213° |
| 2026-04-30 14:07 | 21.92734 | 117.93932 | 34044 ft | 480 kts | 213° |
| 2026-04-30 14:08 | 21.57373 | 117.73446 | 34043 ft | 481 kts | 213° |
| 2026-04-30 14:08 | 21.22600 | 117.52286 | 34032 ft | 473 kts | 229° |
| 2026-04-30 14:09 | 21.16755 | 117.40244 | 34031 ft | 457 kts | 263° |
| 2026-04-30 14:09 | 21.16329 | 117.26667 | 34027 ft | 456 kts | 270° |
| 2026-04-30 14:10 | 21.15862 | 116.85838 | 34032 ft | 457 kts | 269° |
| 2026-04-30 14:10 | 21.15444 | 116.58497 | 34033 ft | 461 kts | 269° |
| 2026-04-30 14:11 | 21.14980 | 116.30954 | 34037 ft | 462 kts | 268° |
| 2026-04-30 14:11 | 21.14471 | 116.03460 | 34040 ft | 461 kts | 268° |
| 2026-04-30 14:12 | 21.13922 | 115.76145 | 34037 ft | 462 kts | 268° |
| 2026-04-30 14:12 | 21.13322 | 115.48541 | 34043 ft | 464 kts | 268° |
| 2026-04-30 14:13 | 21.12703 | 115.21995 | 34041 ft | 465 kts | 268° |
| 2026-04-30 14:13 | 21.12015 | 114.94317 | 34039 ft | 462 kts | 268° |
| 2026-04-30 14:14 | 21.11285 | 114.66814 | 34035 ft | 461 kts | 268° |
| 2026-04-30 14:14 | 21.10513 | 114.39389 | 34041 ft | 461 kts | 267° |
| 2026-04-30 14:15 | 21.09702 | 114.12131 | 34039 ft | 456 kts | 267° |
| 2026-04-30 14:15 | 21.08859 | 113.85234 | 34042 ft | 451 kts | 267° |
| 2026-04-30 14:15 | 21.06574 | 113.72076 | 34043 ft | 450 kts | 252° |
| 2026-04-30 14:16 | 21.02495 | 113.59534 | 34041 ft | 454 kts | 251° |
| 2026-04-30 14:16 | 20.94160 | 113.33973 | 34043 ft | 454 kts | 251° |
| 2026-04-30 14:17 | 20.85811 | 113.08445 | 34043 ft | 453 kts | 251° |
| 2026-04-30 14:17 | 20.77403 | 112.82881 | 34045 ft | 459 kts | 251° |
| 2026-04-30 14:18 | 20.68950 | 112.57323 | 34044 ft | 455 kts | 251° |
| 2026-04-30 14:18 | 20.56839 | 112.18962 | 34045 ft | 455 kts | 263° |
| 2026-04-30 14:19 | 20.64768 | 111.93472 | 34047 ft | 463 kts | 293° |
| 2026-04-30 14:19 | 20.70335 | 111.81222 | 34047 ft | 463 kts | 292° |
| 2026-04-30 14:20 | 20.81489 | 111.56370 | 34050 ft | 463 kts | 292° |
| 2026-04-30 14:20 | 20.92503 | 111.17202 | 34045 ft | 459 kts | 283° |
| 2026-04-30 14:21 | 20.99108 | 110.90825 | 34043 ft | 462 kts | 283° |
| 2026-04-30 14:22 | 21.09158 | 110.50792 | 34045 ft | 465 kts | 283° |
| 2026-04-30 14:22 | 21.17875 | 110.24563 | 34044 ft | 474 kts | 295° |
| 2026-04-30 14:22 | 21.24180 | 110.12143 | 34050 ft | 476 kts | 296° |
| 2026-04-30 14:23 | 21.49433 | 109.61742 | 34034 ft | 481 kts | 296° |
| 2026-04-30 14:24 | 21.63320 | 109.37176 | 34036 ft | 487 kts | 308° |
| 2026-04-30 14:24 | 21.71991 | 109.26114 | 34038 ft | 488 kts | 308° |
| 2026-04-30 14:25 | 22.07152 | 108.81103 | 34031 ft | 492 kts | 309° |
| 2026-04-30 14:26 | 22.33469 | 108.47388 | 34029 ft | 491 kts | 310° |
| 2026-04-30 14:27 | 22.56911 | 108.11990 | 34048 ft | 486 kts | 279° |
| 2026-04-30 14:27 | 22.55625 | 107.97418 | 34040 ft | 490 kts | 260° |
| 2026-04-30 14:27 | 22.52954 | 107.82974 | 34026 ft | 490 kts | 260° |
| 2026-04-30 14:28 | 22.45160 | 107.39470 | 34030 ft | 493 kts | 260° |
| 2026-04-30 14:28 | 22.39912 | 107.10338 | 34028 ft | 493 kts | 260° |
| 2026-04-30 14:29 | 22.31578 | 106.82537 | 34039 ft | 498 kts | 230° |
| 2026-04-30 14:29 | 22.14864 | 106.65214 | 34039 ft | 505 kts | 221° |
| 2026-04-30 14:31 | 21.56666 | 106.14284 | 34028 ft | 503 kts | 220° |
| 2026-04-30 14:31 | 21.24765 | 105.85128 | 34021 ft | 497 kts | 238° |
| 2026-04-30 14:32 | 21.21128 | 105.56727 | 34023 ft | 491 kts | 271° |
| 2026-04-30 14:32 | 21.21078 | 105.42024 | 34023 ft | 492 kts | 270° |
| 2026-04-30 14:33 | 21.20849 | 105.12675 | 34026 ft | 495 kts | 270° |
| 2026-04-30 14:33 | 21.21184 | 104.68266 | 34048 ft | 499 kts | 271° |
| 2026-04-30 14:34 | 21.21361 | 104.38541 | 34066 ft | 499 kts | 271° |
| 2026-04-30 14:34 | 21.21487 | 104.08950 | 34058 ft | 498 kts | 271° |
| 2026-04-30 14:35 | 21.17510 | 103.64675 | 34039 ft | 498 kts | 264° |
| 2026-04-30 14:36 | 21.14455 | 103.35287 | 34032 ft | 499 kts | 264° |
| 2026-04-30 14:36 | 21.11312 | 103.05576 | 34024 ft | 500 kts | 264° |
| 2026-04-30 14:37 | 21.08127 | 102.75981 | 34024 ft | 500 kts | 263° |
| 2026-04-30 14:37 | 21.04924 | 102.46694 | 34014 ft | 496 kts | 263° |
| 2026-04-30 14:38 | 21.01667 | 102.17392 | 34018 ft | 494 kts | 263° |
| 2026-04-30 14:38 | 20.98383 | 101.88294 | 34015 ft | 489 kts | 263° |
| 2026-04-30 14:39 | 20.95071 | 101.59412 | 33998 ft | 489 kts | 263° |
| 2026-04-30 14:39 | 20.91725 | 101.30655 | 34018 ft | 490 kts | 263° |
| 2026-04-30 14:40 | 20.86588 | 100.87322 | 33997 ft | 489 kts | 263° |
| 2026-04-30 14:40 | 20.83115 | 100.58544 | 33977 ft | 488 kts | 262° |
| 2026-04-30 14:41 | 20.82522 | 100.44179 | 33982 ft | 485 kts | 281° |
| 2026-04-30 14:41 | 20.86066 | 100.30274 | 33964 ft | 485 kts | 286° |
| 2026-04-30 14:41 | 20.93606 | 100.02639 | 33982 ft | 479 kts | 285° |
| 2026-04-30 14:42 | 21.00927 | 99.75374 | 34001 ft | 479 kts | 284° |
| 2026-04-30 14:42 | 21.08245 | 99.47932 | 34005 ft | 479 kts | 284° |
| 2026-04-30 14:43 | 21.15525 | 99.20442 | 33997 ft | 479 kts | 283° |
| 2026-04-30 14:43 | 21.22764 | 98.92913 | 33971 ft | 481 kts | 283° |
| 2026-04-30 14:44 | 21.29954 | 98.65378 | 33962 ft | 479 kts | 282° |
| 2026-04-30 14:44 | 21.37080 | 98.37880 | 33964 ft | 478 kts | 282° |
| 2026-04-30 14:45 | 21.44179 | 98.10297 | 33974 ft | 479 kts | 282° |
| 2026-04-30 14:45 | 21.51259 | 97.82576 | 33986 ft | 482 kts | 282° |
| 2026-04-30 14:46 | 21.58306 | 97.54783 | 33969 ft | 482 kts | 282° |
| 2026-04-30 14:46 | 21.64110 | 97.31733 | 33969 ft | 482 kts | 281° |
| 2026-04-30 14:47 | 21.72226 | 96.99253 | 33930 ft | 483 kts | 281° |
| 2026-04-30 14:47 | 21.79159 | 96.71267 | 33931 ft | 486 kts | 281° |
| 2026-04-30 14:48 | 21.86088 | 96.43084 | 33910 ft | 488 kts | 281° |
| 2026-04-30 14:48 | 21.92984 | 96.14736 | 33857 ft | 488 kts | 278° |
| 2026-04-30 14:49 | 21.95774 | 95.86117 | 33837 ft | 482 kts | 272° |
| 2026-04-30 14:49 | 21.98223 | 95.57420 | 33823 ft | 480 kts | 271° |
| 2026-04-30 14:50 | 22.01801 | 95.14413 | 33826 ft | 480 kts | 271° |
| 2026-04-30 14:51 | 22.05266 | 94.71395 | 33845 ft | 481 kts | 270° |
| 2026-04-30 14:52 | 22.08243 | 94.33253 | 33849 ft | 477 kts | 270° |
| 2026-04-30 14:52 | 22.11800 | 93.86080 | 33905 ft | 472 kts | 270° |
| 2026-04-30 14:53 | 22.14511 | 93.48825 | 33962 ft | 471 kts | 271° |
| 2026-04-30 14:54 | 22.18450 | 92.92511 | 33923 ft | 479 kts | 271° |
| 2026-04-30 14:55 | 22.21260 | 92.49461 | 33861 ft | 482 kts | 271° |
| 2026-04-30 14:56 | 22.25137 | 91.91873 | 33864 ft | 480 kts | 272° |
| 2026-04-30 14:57 | 22.29620 | 91.49470 | 33859 ft | 472 kts | 277° |
| 2026-04-30 14:58 | 22.36390 | 90.93640 | 33873 ft | 467 kts | 278° |
| 2026-04-30 14:58 | 22.41446 | 90.51656 | 33870 ft | 471 kts | 277° |
| 2026-04-30 14:59 | 22.44769 | 90.23531 | 33870 ft | 485 kts | 277° |
| 2026-04-30 15:00 | 22.49805 | 89.80082 | 33859 ft | 486 kts | 277° |
| 2026-04-30 15:01 | 22.56348 | 89.22018 | 33805 ft | 486 kts | 276° |
| 2026-04-30 15:01 | 22.61894 | 88.79093 | 33793 ft | 478 kts | 279° |
| 2026-04-30 15:02 | 22.66652 | 88.50857 | 33796 ft | 477 kts | 279° |
| 2026-04-30 15:03 | 22.85935 | 88.12882 | 33785 ft | 488 kts | 298° |
| 2026-04-30 15:03 | 23.00265 | 87.87714 | 33780 ft | 490 kts | 298° |
| 2026-04-30 15:04 | 23.14480 | 87.62645 | 33781 ft | 475 kts | 297° |
| 2026-04-30 15:04 | 23.35120 | 87.25987 | 33796 ft | 473 kts | 297° |
| 2026-04-30 15:06 | 23.69402 | 86.64643 | 33811 ft | 475 kts | 296° |
| 2026-04-30 15:06 | 23.83368 | 86.39775 | 33814 ft | 486 kts | 300° |
| 2026-04-30 15:07 | 23.98745 | 86.15615 | 33824 ft | 487 kts | 300° |
| 2026-04-30 15:08 | 24.29388 | 85.66718 | 33817 ft | 485 kts | 301° |
| 2026-04-30 15:08 | 24.51823 | 85.30615 | 33801 ft | 470 kts | 302° |
| 2026-04-30 15:09 | 24.66480 | 85.06884 | 33775 ft | 464 kts | 302° |
| 2026-04-30 15:09 | 24.78509 | 84.82249 | 33774 ft | 461 kts | 290° |
| 2026-04-30 15:10 | 24.87648 | 84.55818 | 33752 ft | 463 kts | 290° |
| 2026-04-30 15:11 | 25.15173 | 83.75816 | 33745 ft | 471 kts | 291° |
| 2026-04-30 15:13 | 25.38004 | 83.08190 | 33721 ft | 460 kts | 293° |
| 2026-04-30 15:14 | 25.62662 | 82.60471 | 33718 ft | 448 kts | 307° |
| 2026-04-30 15:14 | 25.84911 | 82.27355 | 33738 ft | 444 kts | 307° |
| 2026-04-30 15:17 | 26.51840 | 81.26288 | 33754 ft | 450 kts | 307° |
| 2026-04-30 15:19 | 27.13285 | 80.40335 | 33763 ft | 447 kts | 310° |
| 2026-04-30 17:39 | 45.50721 | 24.51049 | 36314 ft | 466 kts | 300° |
| 2026-04-30 17:42 | 45.67179 | 24.10954 | 36315 ft | 469 kts | 301° |
| 2026-04-30 17:43 | 45.75351 | 23.90829 | 36290 ft | 469 kts | 300° |
| 2026-04-30 17:44 | 45.84599 | 23.67879 | 36318 ft | 469 kts | 300° |
| 2026-04-30 17:47 | 45.99179 | 23.31300 | 36311 ft | 469 kts | 300° |
| 2026-04-30 17:48 | 46.10476 | 23.02622 | 36288 ft | 471 kts | 300° |
| 2026-04-30 17:50 | 46.23300 | 22.69700 | 36286 ft | 471 kts | 300° |
| 2026-04-30 17:52 | 46.32883 | 22.44837 | 36280 ft | 473 kts | 300° |
| 2026-04-30 17:54 | 46.47182 | 22.07310 | 36281 ft | 474 kts | 300° |
| 2026-04-30 17:56 | 46.59861 | 21.73592 | 36281 ft | 477 kts | 300° |
| 2026-04-30 17:58 | 46.69684 | 21.48411 | 36296 ft | 476 kts | 310° |
| 2026-04-30 18:00 | 46.87131 | 21.19430 | 36312 ft | 476 kts | 313° |
| 2026-04-30 18:01 | 46.98069 | 21.01259 | 36317 ft | 476 kts | 313° |
| 2026-04-30 18:02 | 47.11189 | 20.79300 | 36319 ft | 477 kts | 313° |
| 2026-04-30 18:04 | 47.24014 | 20.57662 | 36324 ft | 477 kts | 313° |
| 2026-04-30 18:06 | 47.41389 | 20.28069 | 36324 ft | 478 kts | 313° |
| 2026-04-30 18:08 | 47.56509 | 20.02049 | 36310 ft | 479 kts | 313° |
| 2026-04-30 18:10 | 47.73806 | 19.71974 | 36311 ft | 480 kts | 313° |
| 2026-04-30 18:11 | 47.88634 | 19.45919 | 36317 ft | 481 kts | 313° |
| 2026-04-30 18:13 | 47.99405 | 19.26834 | 36320 ft | 482 kts | 314° |
| 2026-04-30 18:14 | 48.10216 | 19.07625 | 36305 ft | 482 kts | 314° |
| 2026-04-30 18:15 | 48.23325 | 18.84677 | 36331 ft | 483 kts | 315° |